Time;durP1;ratioP1;P1;durP2;ratioP2;P2;SDS_P1;SDS_P2;PMS_P1;PMS_P2;Temp;Humidity;BMP_temperature;BMP_pressure;BME280_temperature;BME280_humidity;BME280_pressure;Samples;Min_cycle;Max_cycle;Signal;HPM_P1;HPM_P2
2022/03/30 00:00:25;;;;;;;;;;;;;;;8.80;59.64;98993.41;4943866;29;19966;-84
2022/03/30 00:02:51;;;;;;;;;;;;;;;8.86;59.69;98992.31;4927563;29;19954;-84
2022/03/30 00:05:16;;;;;;;;;;;;;;;8.79;59.50;98989.84;4927510;29;19922;-84
2022/03/30 00:07:41;;;;;;;;;;;;;;;8.80;59.86;98998.84;4928027;29;19945;-83
2022/03/30 00:10:07;;;;;;;;;;;;;;;8.83;59.61;98990.94;4927215;29;19915;-84
2022/03/30 00:12:34;;;;;;;;;;;;;;;8.90;59.69;98996.13;4932466;29;20309;-84
2022/03/30 00:14:59;;;;;;;;;;;;;;;8.87;59.29;98992.03;4934693;29;19919;-83
2022/03/30 00:17:24;;;;;;;;;;;;;;;8.79;59.75;98984.41;4918153;29;19918;-83
2022/03/30 00:19:49;;;;;;;;;;;;;;;8.94;59.56;98975.47;4934002;29;19925;-84
2022/03/30 00:22:14;;;;;;;;;;;;;;;8.76;59.82;98979.53;4934162;29;19929;-84
2022/03/30 00:24:43;;;;;;;;;;;;;;;8.69;59.68;98981.69;4934436;29;19914;-83
2022/03/30 00:27:08;;;;;;;;;;;;;;;8.70;59.99;98980.63;4934537;29;20067;-84
2022/03/30 00:29:34;;;;;;;;;;;;;;;8.73;59.54;98977.34;4913636;29;20358;-84
2022/03/30 00:31:59;;;;;;;;;;;;;;;8.78;59.74;98985.53;4915472;29;20380;-83
2022/03/30 00:34:24;;;;;;;;;;;;;;;8.62;59.80;98976.56;4917058;29;19971;-84
2022/03/30 00:36:49;;;;;;;;;;;;;;;8.75;60.01;98976.00;4934516;29;20005;-84
2022/03/30 00:39:16;;;;;;;;;;;;;;;8.68;59.99;98983.63;4934841;29;19922;-84
2022/03/30 00:41:42;;;;;;;;;;;;;;;8.80;59.71;98971.66;4914245;29;19930;-84
2022/03/30 00:44:11;;;;;;;;;;;;;;;8.67;59.10;98979.25;4915799;29;19920;-84
2022/03/30 00:46:37;;;;;;;;;;;;;;;8.57;60.37;98980.06;4915155;29;19919;-84
2022/03/30 00:49:04;;;;;;;;;;;;;;;8.58;60.40;98980.91;4915417;29;19922;-84
2022/03/30 00:51:29;;;;;;;;;;;;;;;8.58;60.43;98980.91;4915085;29;19923;-84
2022/03/30 00:53:54;;;;;;;;;;;;;;;8.67;60.63;98984.69;4914737;29;19970;-84
2022/03/30 00:56:19;;;;;;;;;;;;;;;8.64;60.44;98977.09;4898996;29;19971;-84
2022/03/30 00:58:45;;;;;;;;;;;;;;;8.61;60.39;98977.63;4914927;29;19915;-82
2022/03/30 01:01:11;;;;;;;;;;;;;;;8.74;60.16;98968.94;4915112;29;20010;-83
2022/03/30 01:06:39;;;;;;;;;;;;;;;8.77;60.23;98972.22;4913126;29;19951;-85
2022/03/30 01:09:04;;;;;;;;;;;;;;;8.53;60.33;98966.19;4915386;29;19919;-84
2022/03/30 01:11:30;;;;;;;;;;;;;;;8.43;60.93;98971.59;4915085;29;20026;-84
2022/03/30 01:13:55;;;;;;;;;;;;;;;8.36;61.06;98973.78;4916075;29;20017;-84
2022/03/30 01:16:21;;;;;;;;;;;;;;;8.38;61.46;98972.41;4915172;29;19915;-84
2022/03/30 01:18:46;;;;;;;;;;;;;;;8.47;61.12;98963.72;4915455;29;19915;-84
2022/03/30 01:21:11;;;;;;;;;;;;;;;8.64;60.80;98961.59;4915327;29;19962;-84
2022/03/30 01:23:37;;;;;;;;;;;;;;;8.55;60.93;98957.75;4914029;29;20504;-84
2022/03/30 01:26:05;;;;;;;;;;;;;;;8.42;61.25;98956.38;4912695;29;19919;-83
2022/03/30 01:28:35;;;;;;;;;;;;;;;8.29;61.63;98942.28;4912044;29;20422;-84
2022/03/30 01:33:45;;;;;;;;;;;;;;;8.29;62.07;98939.56;4950008;29;20478;-84
2022/03/30 01:36:11;;;;;;;;;;;;;;;8.27;62.03;98939.00;4949906;29;19926;-83
2022/03/30 01:38:36;;;;;;;;;;;;;;;8.17;62.21;98936.28;4949891;29;19949;-84
2022/03/30 01:41:02;;;;;;;;;;;;;;;8.28;62.12;98940.63;4941325;29;19977;-84
2022/03/30 01:43:28;;;;;;;;;;;;;;;8.04;62.76;98934.88;4931350;29;19954;-84
2022/03/30 01:45:53;;;;;;;;;;;;;;;8.14;62.47;98934.06;4929657;29;19914;-84
2022/03/30 01:48:18;;;;;;;;;;;;;;;7.98;62.87;98936.78;4931008;29;19923;-84
2022/03/30 01:50:44;;;;;;;;;;;;;;;8.16;62.66;98931.91;4930794;29;20551;-84
2022/03/30 01:53:09;;;;;;;;;;;;;;;8.02;63.03;98932.44;4930075;29;20005;-84
2022/03/30 01:55:34;;;;;;;;;;;;;;;7.97;63.68;98929.72;4930770;29;19915;-83
2022/03/30 01:57:59;;;;;;;;;;;;;;;7.73;64.33;98930.19;4930430;29;20013;-84
2022/03/30 02:00:26;;;;;;;;;;;;;;;7.78;64.17;98924.78;4929793;29;19950;-84
2022/03/30 02:02:51;;;;;;;;;;;;;;;7.69;64.12;98918.22;4928608;29;19919;-84
2022/03/30 02:05:18;;;;;;;;;;;;;;;7.77;63.89;98917.69;4930711;29;19925;-84
2022/03/30 02:07:43;;;;;;;;;;;;;;;7.71;64.32;98916.06;4930106;29;19932;-85
2022/03/30 02:10:09;;;;;;;;;;;;;;;7.71;64.01;98913.34;4930700;29;19939;-85
2022/03/30 02:12:35;;;;;;;;;;;;;;;7.84;63.90;98914.75;4930597;29;20025;-85
2022/03/30 02:15:01;;;;;;;;;;;;;;;7.62;64.79;98913.06;4930386;29;19969;-85
2022/03/30 02:17:29;;;;;;;;;;;;;;;7.56;64.82;98914.13;4928666;29;20009;-85
2022/03/30 02:19:55;;;;;;;;;;;;;;;7.50;65.21;98912.47;4930420;29;19919;-83
2022/03/30 02:24:58;;;;;;;;;;;;;;;7.57;64.29;98900.28;4929232;29;19915;-84
2022/03/30 02:27:23;;;;;;;;;;;;;;;7.68;64.41;98892.19;4927728;29;19996;-83
2022/03/30 02:29:50;;;;;;;;;;;;;;;7.47;65.20;98892.94;4929190;29;19954;-84
2022/03/30 02:32:16;;;;;;;;;;;;;;;7.58;64.78;98882.13;4938081;29;19918;-85
2022/03/30 02:34:42;;;;;;;;;;;;;;;7.62;65.11;98876.97;4948098;28;19919;-85
2022/03/30 02:37:08;;;;;;;;;;;;;;;7.69;64.80;98881.06;4949492;29;19914;-85
2022/03/30 02:39:33;;;;;;;;;;;;;;;7.58;64.86;98882.94;4950279;29;20664;-84
2022/03/30 02:41:58;;;;;;;;;;;;;;;7.52;65.46;98875.88;4915672;29;19914;-84
2022/03/30 02:44:23;;;;;;;;;;;;;;;7.44;65.47;98884.50;4930575;29;19915;-84
2022/03/30 02:46:49;;;;;;;;;;;;;;;7.49;65.24;98870.97;4928625;29;19923;-84
2022/03/30 02:49:14;;;;;;;;;;;;;;;7.50;65.51;98869.91;4929276;29;19921;-83
2022/03/30 02:51:40;;;;;;;;;;;;;;;7.55;64.98;98863.66;4929152;29;19927;-84
2022/03/30 02:54:05;;;;;;;;;;;;;;;7.51;64.71;98866.09;4929363;29;20417;-85
2022/03/30 02:56:30;;;;;;;;;;;;;;;7.24;65.66;98862.47;4929785;29;19942;-85
2022/03/30 02:58:56;;;;;;;;;;;;;;;6.98;66.64;98859.63;4928739;29;19923;-84
2022/03/30 03:01:21;;;;;;;;;;;;;;;7.04;66.36;98854.25;4929432;29;19933;-84
2022/03/30 03:03:46;;;;;;;;;;;;;;;7.08;66.10;98856.16;4928386;29;19970;-84
2022/03/30 03:06:12;;;;;;;;;;;;;;;6.87;67.21;98845.22;4929261;29;20041;-83
2022/03/30 03:08:37;;;;;;;;;;;;;;;6.74;67.44;98845.69;4929363;29;20384;-83
2022/03/30 03:11:02;;;;;;;;;;;;;;;6.67;67.78;98832.38;4928838;29;19923;-84
2022/03/30 03:13:28;;;;;;;;;;;;;;;6.93;66.73;98837.13;4928620;29;19914;-84
2022/03/30 03:15:53;;;;;;;;;;;;;;;6.72;67.56;98845.13;4929388;29;19919;-83
2022/03/30 03:18:18;;;;;;;;;;;;;;;6.65;67.39;98843.44;4928838;29;20001;-84
2022/03/30 03:20:45;;;;;;;;;;;;;;;6.75;67.50;98837.28;4928394;29;19926;-83
2022/03/30 03:23:11;;;;;;;;;;;;;;;7.04;66.68;98838.78;4928840;29;19929;-83
2022/03/30 03:25:37;;;;;;;;;;;;;;;6.72;67.38;98837.00;4928203;29;19918;-84
2022/03/30 03:28:03;;;;;;;;;;;;;;;6.67;67.88;98837.78;4928701;29;19930;-84
2022/03/30 03:30:28;;;;;;;;;;;;;;;6.66;67.44;98836.16;4928119;29;19922;-84
2022/03/30 03:32:53;;;;;;;;;;;;;;;6.50;67.96;98841.47;4928354;29;19914;-82
2022/03/30 03:35:19;;;;;;;;;;;;;;;6.59;68.03;98836.38;4928724;29;20531;-83
2022/03/30 03:37:44;;;;;;;;;;;;;;;6.51;68.10;98831.44;4927806;29;20301;-83
2022/03/30 03:40:10;;;;;;;;;;;;;;;6.54;68.05;98831.75;4928657;29;19957;-83
2022/03/30 03:42:36;;;;;;;;;;;;;;;6.44;68.56;98834.38;4928449;29;20013;-83
2022/03/30 03:45:03;;;;;;;;;;;;;;;6.56;67.80;98828.78;4928869;29;19957;-82
2022/03/30 03:47:28;;;;;;;;;;;;;;;6.56;67.55;98828.78;4926868;29;19918;-84
2022/03/30 03:49:53;;;;;;;;;;;;;;;6.62;67.24;98824.22;4928801;29;19915;-82
2022/03/30 03:52:18;;;;;;;;;;;;;;;6.24;68.72;98832.34;4911480;29;20325;-82
2022/03/30 03:54:43;;;;;;;;;;;;;;;6.36;68.56;98827.56;4929021;29;19914;-83
2022/03/30 03:57:08;;;;;;;;;;;;;;;6.44;68.18;98830.84;4928125;29;20056;-82
2022/03/30 03:59:35;;;;;;;;;;;;;;;6.31;68.75;98824.81;4928484;29;19915;-85
2022/03/30 04:02:00;;;;;;;;;;;;;;;6.51;68.24;98831.44;4926786;29;20328;-84
2022/03/30 04:04:25;;;;;;;;;;;;;;;6.41;68.76;98833.00;4947574;29;19922;-84
2022/03/30 04:06:51;;;;;;;;;;;;;;;6.37;68.65;98821.06;4947331;29;19966;-84
2022/03/30 04:09:16;;;;;;;;;;;;;;;6.01;69.82;98823.47;4947823;29;19914;-84
2022/03/30 04:11:41;;;;;;;;;;;;;;;6.27;69.20;98831.81;4947621;29;20357;-85
2022/03/30 04:14:06;;;;;;;;;;;;;;;6.29;68.48;98829.66;4948379;29;20381;-83
2022/03/30 04:16:31;;;;;;;;;;;;;;;6.41;68.16;98827.59;4947239;29;20652;-83
2022/03/30 04:18:57;;;;;;;;;;;;;;;6.29;68.92;98824.25;4947688;29;19973;-84
2022/03/30 04:21:22;;;;;;;;;;;;;;;6.15;69.39;98824.69;4935629;29;20388;-83
2022/03/30 04:23:47;;;;;;;;;;;;;;;5.82;70.09;98826.53;4911266;29;20353;-84
2022/03/30 04:26:12;;;;;;;;;;;;;;;5.94;70.40;98818.25;4928476;29;19925;-84
2022/03/30 04:28:41;;;;;;;;;;;;;;;6.11;69.09;98822.75;4927967;29;19919;-84
2022/03/30 04:31:09;;;;;;;;;;;;;;;6.18;68.71;98818.75;4918168;29;19926;-84
2022/03/30 04:33:35;;;;;;;;;;;;;;;5.98;69.44;98822.06;4927553;29;19915;-84
2022/03/30 04:36:00;;;;;;;;;;;;;;;5.73;70.33;98812.69;4928990;29;19970;-84
2022/03/30 04:38:26;;;;;;;;;;;;;;;5.83;69.75;98811.97;4927565;29;20013;-83
2022/03/30 04:40:51;;;;;;;;;;;;;;;5.54;70.51;98802.22;4927855;29;19919;-84
2022/03/30 04:43:16;;;;;;;;;;;;;;;5.59;70.67;98806.88;4926618;29;19988;-84
2022/03/30 04:45:41;;;;;;;;;;;;;;;5.70;70.13;98792.38;4927797;29;19919;-84
2022/03/30 04:48:07;;;;;;;;;;;;;;;5.57;70.99;98796.28;4927899;29;19961;-84
2022/03/30 04:50:32;;;;;;;;;;;;;;;5.77;70.06;98784.03;4927928;29;19965;-82
2022/03/30 04:52:57;;;;;;;;;;;;;;;5.56;70.88;98791.13;4928357;29;19989;-84
2022/03/30 04:55:22;;;;;;;;;;;;;;;5.51;71.40;98778.41;4927450;29;19925;-83
2022/03/30 04:57:47;;;;;;;;;;;;;;;5.54;71.36;98780.59;4927393;29;20005;-84
2022/03/30 05:00:13;;;;;;;;;;;;;;;5.44;71.16;98781.31;4928578;29;19915;-83
2022/03/30 05:02:40;;;;;;;;;;;;;;;5.54;71.02;98777.88;4931308;29;20194;-84
2022/03/30 05:05:06;;;;;;;;;;;;;;;5.47;71.21;98780.78;4931073;29;19926;-82
2022/03/30 05:07:32;;;;;;;;;;;;;;;5.69;70.56;98779.09;4913054;29;20338;-84
2022/03/30 05:09:59;;;;;;;;;;;;;;;5.86;69.60;98789.00;4930837;29;20001;-84
2022/03/30 05:12:25;;;;;;;;;;;;;;;5.49;70.66;98786.75;4930195;29;19962;-84
2022/03/30 05:14:50;;;;;;;;;;;;;;;5.70;70.26;98784.25;4931148;29;19950;-82
2022/03/30 05:17:16;;;;;;;;;;;;;;;5.54;69.85;98793.28;4930214;29;19977;-84
2022/03/30 05:19:41;;;;;;;;;;;;;;;5.32;71.27;98792.25;4929993;29;19926;-84
2022/03/30 05:22:06;;;;;;;;;;;;;;;5.59;70.35;98796.84;4929249;29;20320;-84
2022/03/30 05:27:34;;;;;;;;;;;;;;;5.53;69.90;98791.66;4930903;29;20879;-83
2022/03/30 05:29:59;;;;;;;;;;;;;;;5.53;69.95;98797.06;4928040;29;19922;-84
2022/03/30 05:32:24;;;;;;;;;;;;;;;5.25;70.44;98797.03;4930392;29;19919;-84
2022/03/30 05:34:50;;;;;;;;;;;;;;;5.49;70.34;98794.84;4929632;29;19971;-84
2022/03/30 05:37:15;;;;;;;;;;;;;;;5.43;69.62;98798.56;4929522;29;19945;-82
2022/03/30 05:39:41;;;;;;;;;;;;;;;5.55;70.15;98793.00;4929630;29;19922;-83
2022/03/30 05:42:11;;;;;;;;;;;;;;;5.31;70.99;98796.03;4929348;29;19922;-84
2022/03/30 05:44:37;;;;;;;;;;;;;;;5.41;70.40;98798.00;4929692;29;20009;-84
2022/03/30 05:47:02;;;;;;;;;;;;;;;5.31;70.74;98800.63;4916653;29;20007;-84
2022/03/30 05:49:27;;;;;;;;;;;;;;;5.25;71.37;98795.16;4930325;29;19974;-84
2022/03/30 05:51:53;;;;;;;;;;;;;;;5.30;71.06;98798.97;4929650;29;19919;-83
2022/03/30 05:54:18;;;;;;;;;;;;;;;5.43;70.51;98803.19;4930584;29;19942;-83
2022/03/30 05:57:02;;;;;;;;;;;;;;;5.49;71.00;98804.88;4930487;29;20683;-84
2022/03/30 05:59:29;;;;;;;;;;;;;;;5.35;71.26;98812.56;4930134;29;19922;-84
2022/03/30 06:01:54;;;;;;;;;;;;;;;5.46;71.34;98803.50;4935361;29;19977;-84
2022/03/30 06:04:19;;;;;;;;;;;;;;;5.37;71.43;98803.13;4949611;29;19922;-83
2022/03/30 06:06:44;;;;;;;;;;;;;;;5.33;71.77;98803.91;4949771;29;20274;-83
2022/03/30 06:09:10;;;;;;;;;;;;;;;5.09;72.68;98801.44;4946788;28;20012;-84
2022/03/30 06:11:35;;;;;;;;;;;;;;;5.10;72.17;98803.91;4935512;29;19961;-81
2022/03/30 06:14:00;;;;;;;;;;;;;;;4.95;72.86;98801.81;4927873;29;19929;-82
2022/03/30 06:16:27;;;;;;;;;;;;;;;5.10;72.48;98808.50;4929877;29;19915;-83
2022/03/30 06:18:53;;;;;;;;;;;;;;;5.15;72.35;98808.53;4930182;29;19915;-82
2022/03/30 06:21:18;;;;;;;;;;;;;;;5.19;71.91;98800.75;4929846;29;19973;-84
2022/03/30 06:23:44;;;;;;;;;;;;;;;5.33;71.50;98803.91;4930464;29;19923;-83
2022/03/30 06:26:09;;;;;;;;;;;;;;;5.34;71.53;98806.34;4928656;29;19938;-84
2022/03/30 06:28:34;;;;;;;;;;;;;;;5.38;71.25;98812.06;4936316;29;20021;-82
2022/03/30 06:31:00;;;;;;;;;;;;;;;5.54;70.79;98815.72;4943007;29;19922;-83
2022/03/30 06:33:25;;;;;;;;;;;;;;;5.35;70.10;98812.56;4922091;29;19945;-83
2022/03/30 06:35:51;;;;;;;;;;;;;;;5.18;71.19;98805.34;4946689;29;19914;-81
2022/03/30 06:38:16;;;;;;;;;;;;;;;5.57;70.72;98798.19;4937163;29;19919;-82
2022/03/30 06:40:44;;;;;;;;;;;;;;;5.46;70.92;98800.78;4944050;29;20313;-81
2022/03/30 06:43:09;;;;;;;;;;;;;;;5.46;71.03;98805.38;4945109;29;20269;-82
2022/03/30 06:45:34;;;;;;;;;;;;;;;5.58;70.56;98795.22;4946360;29;19918;-82
2022/03/30 06:47:59;;;;;;;;;;;;;;;5.66;70.63;98799.34;4945311;29;19915;-82
2022/03/30 06:50:25;;;;;;;;;;;;;;;5.93;70.05;98795.00;4944808;29;19923;-84
2022/03/30 06:52:50;;;;;;;;;;;;;;;5.76;69.93;98805.91;4946303;29;19919;-84
2022/03/30 06:55:15;;;;;;;;;;;;;;;5.83;69.07;98806.53;4940030;29;19922;-81
2022/03/30 06:57:41;;;;;;;;;;;;;;;5.78;69.71;98804.59;4918374;29;19989;-82
2022/03/30 07:00:06;;;;;;;;;;;;;;;5.99;69.45;98810.19;4939835;29;19918;-82
2022/03/30 07:02:32;;;;;;;;;;;;;;;5.94;68.47;98808.25;4930337;29;20358;-81
2022/03/30 07:04:57;;;;;;;;;;;;;;;5.96;68.66;98816.09;4922961;29;20486;-82
2022/03/30 07:10:15;;;;;;;;;;;;;;;5.78;69.13;98814.59;4923577;29;19984;-82
2022/03/30 07:12:40;;;;;;;;;;;;;;;5.61;70.07;98812.84;4923264;29;19926;-83
2022/03/30 07:15:06;;;;;;;;;;;;;;;5.47;70.73;98815.91;4924276;29;20130;-84
2022/03/30 07:17:33;;;;;;;;;;;;;;;5.38;70.76;98828.28;4923175;29;19915;-83
2022/03/30 07:19:58;;;;;;;;;;;;;;;5.22;71.15;98820.00;4923310;29;19954;-82
2022/03/30 07:22:23;;;;;;;;;;;;;;;5.45;71.35;98822.69;4903926;29;20288;-82
2022/03/30 07:24:48;;;;;;;;;;;;;;;5.73;69.96;98818.09;4904728;29;19923;-84
2022/03/30 07:27:13;;;;;;;;;;;;;;;5.56;69.48;98826.28;4904440;29;19930;-83
2022/03/30 07:29:39;;;;;;;;;;;;;;;5.51;70.11;98826.25;4904162;29;19923;-84
2022/03/30 07:32:04;;;;;;;;;;;;;;;5.88;69.42;98819.31;4919800;29;20514;-83
2022/03/30 07:34:30;;;;;;;;;;;;;;;5.94;69.42;98818.25;4922860;29;20743;-84
2022/03/30 07:36:56;;;;;;;;;;;;;;;6.02;69.12;98811.59;4924120;29;20535;-84
2022/03/30 07:39:21;;;;;;;;;;;;;;;6.35;68.45;98806.16;4905859;29;19919;-83
2022/03/30 07:42:07;;;;;;;;;;;;;;;6.33;68.26;98802.88;4922999;29;19925;-83
2022/03/30 07:44:32;;;;;;;;;;;;;;;6.59;68.30;98801.16;4905617;29;19921;-83
2022/03/30 07:46:59;;;;;;;;;;;;;;;6.79;67.21;98806.97;4925377;29;19919;-83
2022/03/30 07:49:24;;;;;;;;;;;;;;;6.83;67.00;98803.47;4941608;29;19992;-82
2022/03/30 07:51:49;;;;;;;;;;;;;;;6.72;67.00;98793.66;4926831;29;19969;-83
2022/03/30 07:54:14;;;;;;;;;;;;;;;6.85;66.98;98798.63;4923641;29;19919;-84
2022/03/30 07:56:39;;;;;;;;;;;;;;;6.91;66.71;98793.19;4922761;29;20373;-83
2022/03/30 07:59:05;;;;;;;;;;;;;;;7.00;66.31;98794.31;4921412;29;20109;-83
2022/03/30 08:01:30;;;;;;;;;;;;;;;6.93;66.51;98793.75;4919263;29;19930;-83
2022/03/30 08:03:56;;;;;;;;;;;;;;;7.17;66.18;98791.41;4942480;29;20228;-84
2022/03/30 08:06:22;;;;;;;;;;;;;;;7.09;65.67;98781.91;4940994;29;20591;-83
2022/03/30 08:08:47;;;;;;;;;;;;;;;6.83;66.52;98779.09;4931988;29;20005;-83
2022/03/30 08:11:13;;;;;;;;;;;;;;;6.99;66.23;98771.03;4908235;29;19959;-83
2022/03/30 08:13:38;;;;;;;;;;;;;;;7.09;66.49;98787.31;4929576;29;20017;-85
2022/03/30 08:16:04;;;;;;;;;;;;;;;7.14;65.98;98788.41;4923994;29;20057;-84
2022/03/30 08:18:29;;;;;;;;;;;;;;;6.89;66.40;98793.47;4932255;29;20453;-84
2022/03/30 08:23:38;;;;;;;;;;;;;;;7.14;65.94;98794.63;4922074;29;20507;-84
2022/03/30 08:26:03;;;;;;;;;;;;;;;6.93;67.05;98789.16;4922939;29;19918;-83
2022/03/30 08:28:29;;;;;;;;;;;;;;;7.18;66.15;98793.03;4922651;29;19923;-86
2022/03/30 08:30:54;;;;;;;;;;;;;;;7.11;66.29;98793.28;4915353;29;20484;-83
2022/03/30 08:33:23;;;;;;;;;;;;;;;7.44;65.92;98801.25;4923813;28;19922;-83
2022/03/30 08:35:49;;;;;;;;;;;;;;;7.59;65.29;98795.03;4926320;29;19915;-83
2022/03/30 08:38:15;;;;;;;;;;;;;;;7.44;65.87;98797.72;4926603;29;20704;-83
2022/03/30 08:40:40;;;;;;;;;;;;;;;7.76;64.93;98799.41;4925894;29;19930;-82
2022/03/30 08:43:06;;;;;;;;;;;;;;;7.61;64.90;98793.97;4924914;29;19918;-86
2022/03/30 08:45:31;;;;;;;;;;;;;;;7.69;64.69;98791.53;4925221;29;20369;-83
2022/03/30 08:47:56;;;;;;;;;;;;;;;7.77;64.60;98798.31;4937241;29;19918;-85
2022/03/30 08:50:22;;;;;;;;;;;;;;;7.72;64.17;98798.31;4942180;29;20014;-83
2022/03/30 08:52:49;;;;;;;;;;;;;;;7.98;63.25;98794.78;4924814;29;20444;-83
2022/03/30 08:55:15;;;;;;;;;;;;;;;7.74;62.68;98807.00;4919826;29;20371;-83
2022/03/30 08:57:40;;;;;;;;;;;;;;;7.42;62.49;98800.72;4924534;29;19919;-83
2022/03/30 09:00:16;;;;;;;;;;;;;;;7.45;62.97;98796.63;4921559;29;20417;-83
2022/03/30 09:02:43;;;;;;;;;;;;;;;7.73;62.33;98791.00;4922814;29;20042;-83
2022/03/30 09:05:25;;;;;;;;;;;;;;;7.88;62.58;98801.84;4908862;29;19919;-85
2022/03/30 09:07:54;;;;;;;;;;;;;;;8.15;61.95;98794.53;4923285;29;20119;-83
2022/03/30 09:10:32;;;;;;;;;;;;;;;8.20;62.22;98791.81;4922530;29;19926;-83
2022/03/30 09:12:58;;;;;;;;;;;;;;;8.47;61.01;98789.88;4924469;29;19953;-79
2022/03/30 09:15:23;;;;;;;;;;;;;;;8.40;60.70;98790.16;4925604;29;20492;-82
2022/03/30 09:17:49;;;;;;;;;;;;;;;8.37;60.93;98782.56;4908468;29;20243;-85
2022/03/30 09:20:16;;;;;;;;;;;;;;;8.69;60.99;98775.16;4919179;29;20029;-84
2022/03/30 09:22:45;;;;;;;;;;;;;;;8.89;60.24;98778.94;4906583;29;20141;-83
2022/03/30 09:25:12;;;;;;;;;;;;;;;8.94;60.10;98773.47;4919544;29;20040;-82
2022/03/30 09:27:41;;;;;;;;;;;;;;;8.74;59.53;98772.44;4924741;29;20125;-82
2022/03/30 09:30:06;;;;;;;;;;;;;;;9.10;59.24;98768.78;4924302;29;19922;-83
2022/03/30 09:32:32;;;;;;;;;;;;;;;9.40;58.37;98766.97;4912919;29;20312;-83
2022/03/30 09:34:57;;;;;;;;;;;;;;;9.55;58.31;98768.78;4905466;29;19926;-83
2022/03/30 09:37:22;;;;;;;;;;;;;;;9.45;57.56;98768.84;4906229;29;20446;-82
2022/03/30 09:39:49;;;;;;;;;;;;;;;9.63;57.36;98761.94;4906038;29;19915;-83
2022/03/30 09:42:16;;;;;;;;;;;;;;;9.26;57.45;98763.25;4906451;29;20626;-84
2022/03/30 09:44:49;;;;;;;;;;;;;;;9.30;59.15;98756.16;4904902;29;19993;-83
2022/03/30 09:47:15;;;;;;;;;;;;;;;9.79;57.89;98750.94;4906191;29;19922;-85
2022/03/30 09:49:42;;;;;;;;;;;;;;;9.98;56.55;98752.97;4907189;29;19923;-85
2022/03/30 09:52:11;;;;;;;;;;;;;;;10.06;56.55;98749.63;4906262;29;19923;-85
2022/03/30 09:54:40;;;;;;;;;;;;;;;9.60;56.47;98753.53;4911940;29;19919;-85
2022/03/30 09:57:19;;;;;;;;;;;;;;;9.73;56.01;98752.06;4925837;29;19926;-86
2022/03/30 10:00:14;;;;;;;;;;;;;;;9.65;55.97;98753.47;4906115;29;20489;-85
2022/03/30 10:02:50;;;;;;;;;;;;;;;9.86;55.55;98759.59;4886543;29;19927;-85
2022/03/30 10:05:16;;;;;;;;;;;;;;;9.95;55.30;98750.78;4907725;29;19935;-85
2022/03/30 10:07:42;;;;;;;;;;;;;;;10.30;55.04;98751.56;4896407;29;19946;-85
2022/03/30 10:10:09;;;;;;;;;;;;;;;10.23;53.97;98737.50;4899988;29;19931;-84
2022/03/30 10:12:34;;;;;;;;;;;;;;;10.42;54.81;98743.00;4901382;29;19926;-85
2022/03/30 10:14:59;;;;;;;;;;;;;;;10.51;54.25;98733.09;4904481;29;20346;-86
2022/03/30 10:17:25;;;;;;;;;;;;;;;10.70;54.64;98728.84;4897715;29;19919;-85
2022/03/30 10:19:52;;;;;;;;;;;;;;;10.82;53.20;98726.47;4898229;29;19926;-85
2022/03/30 10:25:33;;;;;;;;;;;;;;;10.76;52.51;98724.94;4906075;29;19965;-86
2022/03/30 10:28:13;;;;;;;;;;;;;;;10.89;53.90;98704.31;4906539;29;20359;-85
2022/03/30 10:30:43;;;;;;;;;;;;;;;10.86;53.68;98702.19;4901746;29;19923;-86
2022/03/30 10:33:08;;;;;;;;;;;;;;;10.87;52.75;98709.25;4924788;29;19940;-84
2022/03/30 10:35:36;;;;;;;;;;;;;;;11.01;53.42;98706.63;4924983;29;20580;-86
2022/03/30 10:38:02;;;;;;;;;;;;;;;11.45;52.48;98692.91;4924770;29;20367;-85
2022/03/30 10:40:28;;;;;;;;;;;;;;;11.32;52.64;98699.91;4920243;29;19930;-85
2022/03/30 10:42:54;;;;;;;;;;;;;;;11.67;51.70;98705.13;4907639;29;19921;-84
2022/03/30 10:45:25;;;;;;;;;;;;;;;11.27;50.76;98697.28;4909947;29;19923;-86
2022/03/30 10:48:07;;;;;;;;;;;;;;;11.44;52.70;98686.63;4910409;29;19919;-85
2022/03/30 10:50:36;;;;;;;;;;;;;;;11.72;50.42;98691.38;4909827;29;19969;-84
2022/03/30 10:53:01;;;;;;;;;;;;;;;11.70;49.14;98687.31;4893808;29;19915;-84
2022/03/30 10:55:29;;;;;;;;;;;;;;;11.63;49.50;98683.06;4910300;29;19915;-83
2022/03/30 10:57:57;;;;;;;;;;;;;;;12.00;49.12;98680.50;4910835;29;20033;-83
2022/03/30 11:00:29;;;;;;;;;;;;;;;12.21;49.61;98673.88;4910178;29;19926;-82
2022/03/30 11:03:11;;;;;;;;;;;;;;;12.18;47.69;98677.25;4910344;29;20472;-84
2022/03/30 11:05:37;;;;;;;;;;;;;;;11.68;49.12;98672.06;4909699;29;19919;-85
2022/03/30 11:08:06;;;;;;;;;;;;;;;11.84;48.99;98677.25;4909731;29;19922;-85
2022/03/30 11:10:46;;;;;;;;;;;;;;;11.98;49.25;98668.28;4909625;29;19923;-83
2022/03/30 11:13:12;;;;;;;;;;;;;;;12.20;47.83;98658.63;4905155;29;19926;-81
2022/03/30 11:15:55;;;;;;;;;;;;;;;12.45;47.81;98662.75;4890515;29;20658;-83
2022/03/30 11:18:21;;;;;;;;;;;;;;;12.54;47.31;98653.84;4890358;29;20006;-81
2022/03/30 11:21:05;;;;;;;;;;;;;;;12.76;48.63;98646.81;4897224;29;20091;-84
2022/03/30 11:23:30;;;;;;;;;;;;;;;12.78;47.68;98653.63;4909519;29;20347;-85
2022/03/30 11:25:56;;;;;;;;;;;;;;;12.91;47.36;98651.97;4910307;29;19961;-84
2022/03/30 11:28:34;;;;;;;;;;;;;;;12.76;47.00;98636.69;4909380;29;19962;-83
2022/03/30 11:31:01;;;;;;;;;;;;;;;12.74;44.90;98636.19;4923806;29;20009;-84
2022/03/30 11:33:27;;;;;;;;;;;;;;;12.65;45.76;98638.06;4928640;29;19914;-81
2022/03/30 11:35:52;;;;;;;;;;;;;;;12.89;45.90;98637.81;4928441;29;19915;-82
2022/03/30 11:38:21;;;;;;;;;;;;;;;12.79;46.11;98627.09;4928759;29;19986;-81
2022/03/30 11:40:47;;;;;;;;;;;;;;;13.31;45.73;98628.63;4927203;29;20445;-83
2022/03/30 11:43:13;;;;;;;;;;;;;;;12.97;44.72;98622.56;4928424;29;20389;-83
2022/03/30 11:45:39;;;;;;;;;;;;;;;13.12;45.64;98624.13;4927955;29;19915;-84
2022/03/30 11:48:09;;;;;;;;;;;;;;;13.22;44.61;98628.53;4942984;29;19918;-84
2022/03/30 11:50:36;;;;;;;;;;;;;;;12.99;45.62;98625.81;4942238;29;19938;-84
2022/03/30 11:55:54;;;;;;;;;;;;;;;13.75;44.83;98617.19;4918024;29;19984;-84
2022/03/30 11:58:22;;;;;;;;;;;;;;;13.56;44.27;98618.19;4927763;29;20624;-83
2022/03/30 12:00:47;;;;;;;;;;;;;;;13.77;45.04;98610.25;4920688;29;19919;-83
2022/03/30 12:03:14;;;;;;;;;;;;;;;13.65;45.02;98602.59;4924478;29;19919;-83
2022/03/30 12:05:39;;;;;;;;;;;;;;;13.58;43.62;98601.44;4927558;29;20648;-83
2022/03/30 12:08:04;;;;;;;;;;;;;;;13.30;45.30;98596.91;4926619;29;19973;-81
2022/03/30 12:10:33;;;;;;;;;;;;;;;13.72;44.73;98604.91;4927146;29;20004;-83
2022/03/30 12:12:59;;;;;;;;;;;;;;;14.00;44.01;98584.72;4928752;29;20370;-85
2022/03/30 12:15:24;;;;;;;;;;;;;;;13.97;43.24;98588.09;4928146;29;20548;-85
2022/03/30 12:17:54;;;;;;;;;;;;;;;14.16;43.31;98587.84;4928172;29;20377;-85
2022/03/30 12:20:30;;;;;;;;;;;;;;;13.56;43.86;98588.06;4928183;29;20069;-85
2022/03/30 12:23:06;;;;;;;;;;;;;;;13.91;43.29;98586.63;4928600;29;19923;-86
2022/03/30 12:25:32;;;;;;;;;;;;;;;14.05;43.59;98590.06;4925692;29;19915;-83
2022/03/30 12:27:58;;;;;;;;;;;;;;;13.92;44.34;98588.22;4910309;29;19962;-83
2022/03/30 12:30:24;;;;;;;;;;;;;;;13.91;44.34;98581.97;4914220;29;20477;-84
2022/03/30 12:32:49;;;;;;;;;;;;;;;14.17;44.47;98591.38;4910995;29;19945;-86
2022/03/30 12:35:16;;;;;;;;;;;;;;;14.11;43.57;98582.50;4909691;29;19926;-82
2022/03/30 12:37:43;;;;;;;;;;;;;;;13.98;44.64;98573.25;4909102;29;19919;-84
2022/03/30 12:40:16;;;;;;;;;;;;;;;14.00;43.46;98574.56;4907018;29;19987;-81
2022/03/30 12:42:44;;;;;;;;;;;;;;;13.49;45.23;98577.53;4908776;29;20005;-83
2022/03/30 12:45:11;;;;;;;;;;;;;;;13.38;44.92;98570.72;4901938;28;19922;-83
2022/03/30 12:47:38;;;;;;;;;;;;;;;12.98;45.20;98579.63;4913631;29;20489;-81
2022/03/30 12:50:06;;;;;;;;;;;;;;;13.03;45.55;98571.28;4900454;29;19926;-83
2022/03/30 12:52:58;;;;;;;;;;;;;;;13.14;44.41;98561.69;4908023;29;19927;-84
2022/03/30 12:55:26;;;;;;;;;;;;;;;13.19;44.58;98564.31;4902419;29;19926;-78
2022/03/30 12:58:02;;;;;;;;;;;;;;;13.41;43.38;98564.59;4906277;29;19923;-86
2022/03/30 13:00:35;;;;;;;;;;;;;;;13.30;43.94;98562.13;4905730;29;20386;-80
2022/03/30 13:03:05;;;;;;;;;;;;;;;13.55;42.87;98561.81;4907174;29;19919;-80
2022/03/30 13:05:30;;;;;;;;;;;;;;;13.89;42.83;98551.34;4912528;29;20286;-80
2022/03/30 13:07:56;;;;;;;;;;;;;;;14.00;42.75;98547.16;4914904;29;19925;-80
2022/03/30 13:10:21;;;;;;;;;;;;;;;14.50;42.84;98543.56;4913654;29;20501;-81
2022/03/30 13:12:50;;;;;;;;;;;;;;;14.38;40.14;98538.72;4914285;29;19954;-81
2022/03/30 13:15:16;;;;;;;;;;;;;;;13.49;41.92;98543.84;4916383;29;20006;-83